sensor_id;sensor_type;location;lat;lon;timestamp;pressure;altitude;pressure_sealevel;temperature;humidity
72961;BME280;61141;46.204;19.774;2022-08-03T00:02:32;100494.41;;;21.03;56.02
72961;BME280;61141;46.204;19.774;2022-08-03T00:05:36;100488.81;;;21.35;55.12
72961;BME280;61141;46.204;19.774;2022-08-03T00:08:39;100481.22;;;21.36;55.06
72961;BME280;61141;46.204;19.774;2022-08-03T00:11:42;100491.47;;;21.26;55.51
72961;BME280;61141;46.204;19.774;2022-08-03T00:14:44;100482.34;;;21.38;55.09
72961;BME280;61141;46.204;19.774;2022-08-03T00:17:48;100480.81;;;21.37;54.97
72961;BME280;61141;46.204;19.774;2022-08-03T00:20:55;100481.53;;;21.25;55.11
72961;BME280;61141;46.204;19.774;2022-08-03T00:23:58;100486.94;;;21.16;55.18
72961;BME280;61141;46.204;19.774;2022-08-03T00:27:01;100475.53;;;21.11;55.80
72961;BME280;61141;46.204;19.774;2022-08-03T00:30:05;100480.41;;;21.06;55.85
72961;BME280;61141;46.204;19.774;2022-08-03T00:33:08;100477.34;;;21.01;56.06
72961;BME280;61141;46.204;19.774;2022-08-03T00:36:12;100475.78;;;21.00;56.40
72961;BME280;61141;46.204;19.774;2022-08-03T00:39:16;100484.47;;;21.02;56.37
72961;BME280;61141;46.204;19.774;2022-08-03T00:42:19;100469.53;;;20.96;56.42
72961;BME280;61141;46.204;19.774;2022-08-03T00:45:33;100476.03;;;21.05;56.17
72961;BME280;61141;46.204;19.774;2022-08-03T00:48:36;100480.31;;;20.94;56.76
72961;BME280;61141;46.204;19.774;2022-08-03T00:51:39;100479.34;;;21.00;56.46
72961;BME280;61141;46.204;19.774;2022-08-03T00:54:43;100468.03;;;21.07;55.94
72961;BME280;61141;46.204;19.774;2022-08-03T00:57:46;100474.56;;;21.01;56.36
72961;BME280;61141;46.204;19.774;2022-08-03T01:00:50;100455.78;;;20.89;56.52
72961;BME280;61141;46.204;19.774;2022-08-03T01:03:53;100486.41;;;20.73;57.71
72961;BME280;61141;46.204;19.774;2022-08-03T01:07:05;100473.53;;;20.63;57.91
72961;BME280;61141;46.204;19.774;2022-08-03T01:13:55;100480.59;;;20.67;57.78
72961;BME280;61141;46.204;19.774;2022-08-03T01:20:54;100478.06;;;20.73;57.59
72961;BME280;61141;46.204;19.774;2022-08-03T01:24:43;100479.62;;;20.74;57.71
72961;BME280;61141;46.204;19.774;2022-08-03T01:31:52;100467.59;;;20.28;59.35
72961;BME280;61141;46.204;19.774;2022-08-03T01:35:34;100481.16;;;20.26;59.89
72961;BME280;61141;46.204;19.774;2022-08-03T01:38:43;100467.00;;;20.17;59.74
72961;BME280;61141;46.204;19.774;2022-08-03T01:41:54;100478.72;;;20.28;59.37
72961;BME280;61141;46.204;19.774;2022-08-03T01:45:02;100477.00;;;20.15;60.60
72961;BME280;61141;46.204;19.774;2022-08-03T01:48:08;100471.94;;;20.10;60.77
72961;BME280;61141;46.204;19.774;2022-08-03T01:51:15;100462.78;;;19.93;61.35
72961;BME280;61141;46.204;19.774;2022-08-03T01:54:22;100469.53;;;19.92;61.14
72961;BME280;61141;46.204;19.774;2022-08-03T01:57:28;100462.34;;;19.94;60.94
72961;BME280;61141;46.204;19.774;2022-08-03T02:00:36;100466.25;;;19.97;60.69
72961;BME280;61141;46.204;19.774;2022-08-03T02:03:41;100464.66;;;20.16;60.34
72961;BME280;61141;46.204;19.774;2022-08-03T02:07:02;100467.72;;;20.21;59.89
72961;BME280;61141;46.204;19.774;2022-08-03T02:10:07;100461.84;;;20.35;59.35
72961;BME280;61141;46.204;19.774;2022-08-03T02:13:11;100449.84;;;20.38;58.77
72961;BME280;61141;46.204;19.774;2022-08-03T02:16:17;100466.72;;;20.31;59.47
72961;BME280;61141;46.204;19.774;2022-08-03T02:19:22;100444.69;;;20.21;60.00
72961;BME280;61141;46.204;19.774;2022-08-03T02:22:27;100465.25;;;20.27;60.11
72961;BME280;61141;46.204;19.774;2022-08-03T02:25:34;100463.59;;;20.29;60.31
72961;BME280;61141;46.204;19.774;2022-08-03T02:28:43;100456.38;;;20.32;60.26
72961;BME280;61141;46.204;19.774;2022-08-03T02:31:48;100455.31;;;20.26;60.15
72961;BME280;61141;46.204;19.774;2022-08-03T02:34:54;100434.66;;;20.07;60.34
72961;BME280;61141;46.204;19.774;2022-08-03T02:38:02;100458.38;;;20.12;60.65
72961;BME280;61141;46.204;19.774;2022-08-03T02:41:09;100461.34;;;20.05;60.57
72961;BME280;61141;46.204;19.774;2022-08-03T02:44:16;100463.97;;;19.92;61.05
72961;BME280;61141;46.204;19.774;2022-08-03T02:47:21;100438.13;;;19.75;61.24
72961;BME280;61141;46.204;19.774;2022-08-03T02:50:25;100465.06;;;19.78;61.39
72961;BME280;61141;46.204;19.774;2022-08-03T02:53:30;100460.63;;;19.81;61.61
72961;BME280;61141;46.204;19.774;2022-08-03T02:56:36;100468.97;;;19.81;61.66
72961;BME280;61141;46.204;19.774;2022-08-03T02:59:41;100469.56;;;19.72;62.03
72961;BME280;61141;46.204;19.774;2022-08-03T03:02:46;100476.91;;;19.63;62.26
72961;BME280;61141;46.204;19.774;2022-08-03T03:05:50;100460.75;;;19.58;62.41
72961;BME280;61141;46.204;19.774;2022-08-03T03:08:59;100465.56;;;19.54;62.37
72961;BME280;61141;46.204;19.774;2022-08-03T03:12:06;100475.25;;;19.46;62.44
72961;BME280;61141;46.204;19.774;2022-08-03T03:15:09;100477.19;;;19.49;62.54
72961;BME280;61141;46.204;19.774;2022-08-03T03:18:13;100477.31;;;19.42;62.96
72961;BME280;61141;46.204;19.774;2022-08-03T03:21:24;100477.91;;;19.29;63.69
72961;BME280;61141;46.204;19.774;2022-08-03T03:24:28;100458.84;;;19.08;64.01
72961;BME280;61141;46.204;19.774;2022-08-03T03:27:32;100475.50;;;19.08;64.33
72961;BME280;61141;46.204;19.774;2022-08-03T03:30:36;100481.06;;;19.08;64.23
72961;BME280;61141;46.204;19.774;2022-08-03T03:33:39;100486.81;;;18.98;64.58
72961;BME280;61141;46.204;19.774;2022-08-03T03:36:42;100484.63;;;19.09;64.02
72961;BME280;61141;46.204;19.774;2022-08-03T03:39:45;100488.63;;;19.08;64.03
72961;BME280;61141;46.204;19.774;2022-08-03T03:42:49;100488.19;;;19.09;63.71
72961;BME280;61141;46.204;19.774;2022-08-03T03:45:53;100489.78;;;19.10;63.32
72961;BME280;61141;46.204;19.774;2022-08-03T03:48:58;100487.00;;;19.10;63.40
72961;BME280;61141;46.204;19.774;2022-08-03T03:52:07;100488.94;;;19.13;63.54
72961;BME280;61141;46.204;19.774;2022-08-03T03:55:16;100484.94;;;19.14;63.32
72961;BME280;61141;46.204;19.774;2022-08-03T03:58:20;100492.59;;;19.07;63.30
72961;BME280;61141;46.204;19.774;2022-08-03T04:01:26;100490.88;;;19.16;63.24
72961;BME280;61141;46.204;19.774;2022-08-03T04:04:31;100490.19;;;19.09;63.56
72961;BME280;61141;46.204;19.774;2022-08-03T04:11:33;100497.13;;;19.20;63.22
72961;BME280;61141;46.204;19.774;2022-08-03T04:14:39;100503.62;;;19.33;63.12
72961;BME280;61141;46.204;19.774;2022-08-03T04:17:43;100499.62;;;19.38;62.71
72961;BME280;61141;46.204;19.774;2022-08-03T04:20:48;100511.87;;;19.41;62.61
72961;BME280;61141;46.204;19.774;2022-08-03T04:23:55;100511.66;;;19.51;62.28
72961;BME280;61141;46.204;19.774;2022-08-03T04:27:02;100519.66;;;19.49;62.51
72961;BME280;61141;46.204;19.774;2022-08-03T04:30:07;100515.88;;;19.59;62.25
72961;BME280;61141;46.204;19.774;2022-08-03T04:33:11;100516.91;;;19.69;62.37
72961;BME280;61141;46.204;19.774;2022-08-03T04:36:18;100523.88;;;19.77;62.38
72961;BME280;61141;46.204;19.774;2022-08-03T04:39:30;100509.53;;;19.78;62.34
72961;BME280;61141;46.204;19.774;2022-08-03T04:42:34;100521.13;;;19.97;61.75
72961;BME280;61141;46.204;19.774;2022-08-03T04:45:39;100522.44;;;20.08;61.41
72961;BME280;61141;46.204;19.774;2022-08-03T04:48:43;100524.97;;;20.38;60.69
72961;BME280;61141;46.204;19.774;2022-08-03T04:51:48;100519.91;;;20.69;59.75
72961;BME280;61141;46.204;19.774;2022-08-03T04:54:51;100533.94;;;20.82;59.81
72961;BME280;61141;46.204;19.774;2022-08-03T04:57:55;100527.06;;;21.02;59.61
72961;BME280;61141;46.204;19.774;2022-08-03T05:00:59;100526.31;;;21.18;58.93
72961;BME280;61141;46.204;19.774;2022-08-03T05:04:02;100536.34;;;21.44;58.15
72961;BME280;61141;46.204;19.774;2022-08-03T05:07:05;100542.06;;;21.70;57.88
72961;BME280;61141;46.204;19.774;2022-08-03T05:10:15;100539.81;;;21.93;57.70
72961;BME280;61141;46.204;19.774;2022-08-03T05:13:19;100539.63;;;22.13;58.09
72961;BME280;61141;46.204;19.774;2022-08-03T05:16:22;100542.91;;;22.24;58.64
72961;BME280;61141;46.204;19.774;2022-08-03T05:19:27;100542.72;;;22.31;58.69
72961;BME280;61141;46.204;19.774;2022-08-03T05:22:30;100544.84;;;22.52;58.17
72961;BME280;61141;46.204;19.774;2022-08-03T05:25:33;100547.09;;;22.83;57.16
72961;BME280;61141;46.204;19.774;2022-08-03T05:28:37;100546.66;;;22.84;57.53
72961;BME280;61141;46.204;19.774;2022-08-03T05:31:40;100550.78;;;23.05;56.98
72961;BME280;61141;46.204;19.774;2022-08-03T05:34:43;100552.28;;;23.31;56.38
72961;BME280;61141;46.204;19.774;2022-08-03T05:37:46;100550.47;;;23.50;56.05
72961;BME280;61141;46.204;19.774;2022-08-03T05:40:56;100540.78;;;23.42;56.39
72961;BME280;61141;46.204;19.774;2022-08-03T05:44:20;100556.13;;;23.59;56.02
72961;BME280;61141;46.204;19.774;2022-08-03T05:47:23;100554.84;;;23.72;56.04
72961;BME280;61141;46.204;19.774;2022-08-03T05:50:26;100555.66;;;23.94;55.36
72961;BME280;61141;46.204;19.774;2022-08-03T05:53:32;100555.81;;;24.13;55.11
72961;BME280;61141;46.204;19.774;2022-08-03T05:56:35;100561.44;;;24.43;54.32
72961;BME280;61141;46.204;19.774;2022-08-03T05:59:38;100559.50;;;24.62;53.87
72961;BME280;61141;46.204;19.774;2022-08-03T06:02:56;100565.59;;;24.70;53.59
72961;BME280;61141;46.204;19.774;2022-08-03T06:05:59;100563.09;;;25.02;52.69
72961;BME280;61141;46.204;19.774;2022-08-03T06:09:02;100561.63;;;25.29;51.92
72961;BME280;61141;46.204;19.774;2022-08-03T06:12:06;100570.41;;;25.49;51.57
72961;BME280;61141;46.204;19.774;2022-08-03T06:15:15;100571.03;;;25.53;51.23
72961;BME280;61141;46.204;19.774;2022-08-03T06:18:18;100571.34;;;25.64;49.79
72961;BME280;61141;46.204;19.774;2022-08-03T06:21:21;100573.69;;;25.75;50.41
72961;BME280;61141;46.204;19.774;2022-08-03T06:24:24;100575.72;;;25.74;50.59
72961;BME280;61141;46.204;19.774;2022-08-03T06:27:27;100573.38;;;25.91;50.31
72961;BME280;61141;46.204;19.774;2022-08-03T06:30:39;100583.50;;;25.88;50.33
72961;BME280;61141;46.204;19.774;2022-08-03T06:33:43;100578.84;;;26.12;49.67
72961;BME280;61141;46.204;19.774;2022-08-03T06:37:06;100576.03;;;26.21;49.33
72961;BME280;61141;46.204;19.774;2022-08-03T06:40:11;100582.50;;;26.55;48.47
72961;BME280;61141;46.204;19.774;2022-08-03T06:43:15;100585.44;;;26.78;47.66
72961;BME280;61141;46.204;19.774;2022-08-03T06:46:19;100584.62;;;26.69;47.68
72961;BME280;61141;46.204;19.774;2022-08-03T06:49:22;100588.00;;;26.40;48.76
72961;BME280;61141;46.204;19.774;2022-08-03T06:52:25;100591.50;;;26.68;48.22
72961;BME280;61141;46.204;19.774;2022-08-03T06:55:40;100584.22;;;27.03;47.18
72961;BME280;61141;46.204;19.774;2022-08-03T06:58:44;100587.91;;;27.09;46.95
72961;BME280;61141;46.204;19.774;2022-08-03T07:01:48;100602.97;;;27.30;46.48
72961;BME280;61141;46.204;19.774;2022-08-03T07:04:51;100594.03;;;27.31;46.02
72961;BME280;61141;46.204;19.774;2022-08-03T07:07:55;100587.72;;;27.46;46.00
72961;BME280;61141;46.204;19.774;2022-08-03T07:11:03;100576.66;;;27.09;46.01
72961;BME280;61141;46.204;19.774;2022-08-03T07:14:06;100592.41;;;27.16;46.81
72961;BME280;61141;46.204;19.774;2022-08-03T07:17:09;100582.97;;;27.28;45.97
72961;BME280;61141;46.204;19.774;2022-08-03T07:20:14;100584.34;;;27.32;45.31
72961;BME280;61141;46.204;19.774;2022-08-03T07:23:18;100585.13;;;27.42;45.06
72961;BME280;61141;46.204;19.774;2022-08-03T07:26:21;100584.31;;;27.65;44.32
72961;BME280;61141;46.204;19.774;2022-08-03T07:29:24;100582.31;;;27.95;43.18
72961;BME280;61141;46.204;19.774;2022-08-03T07:32:27;100584.06;;;27.78;42.24
72961;BME280;61141;46.204;19.774;2022-08-03T07:35:33;100578.03;;;27.85;42.27
72961;BME280;61141;46.204;19.774;2022-08-03T07:38:36;100591.34;;;28.08;42.15
72961;BME280;61141;46.204;19.774;2022-08-03T07:41:39;100581.91;;;28.11;41.45
72961;BME280;61141;46.204;19.774;2022-08-03T07:44:43;100583.47;;;28.27;40.36
72961;BME280;61141;46.204;19.774;2022-08-03T07:47:46;100583.09;;;28.48;39.43
72961;BME280;61141;46.204;19.774;2022-08-03T07:50:55;100588.53;;;28.37;39.42
72961;BME280;61141;46.204;19.774;2022-08-03T07:53:58;100597.88;;;28.58;38.16
72961;BME280;61141;46.204;19.774;2022-08-03T07:57:02;100585.03;;;28.57;38.98
72961;BME280;61141;46.204;19.774;2022-08-03T08:00:12;100589.19;;;28.62;38.47
72961;BME280;61141;46.204;19.774;2022-08-03T08:03:16;100592.63;;;28.66;35.81
72961;BME280;61141;46.204;19.774;2022-08-03T08:06:20;100584.94;;;28.51;37.71
72961;BME280;61141;46.204;19.774;2022-08-03T08:09:23;100584.78;;;29.04;37.09
72961;BME280;61141;46.204;19.774;2022-08-03T08:12:30;100590.72;;;28.92;37.06
72961;BME280;61141;46.204;19.774;2022-08-03T08:15:33;100594.66;;;29.14;34.98
72961;BME280;61141;46.204;19.774;2022-08-03T08:18:36;100596.78;;;29.34;33.89
72961;BME280;61141;46.204;19.774;2022-08-03T08:21:39;100591.34;;;29.51;33.54
72961;BME280;61141;46.204;19.774;2022-08-03T08:25:03;100589.16;;;29.40;34.85
72961;BME280;61141;46.204;19.774;2022-08-03T08:28:06;100588.88;;;29.58;35.84
72961;BME280;61141;46.204;19.774;2022-08-03T08:31:29;100594.97;;;29.72;35.49
72961;BME280;61141;46.204;19.774;2022-08-03T08:34:32;100590.56;;;29.70;35.09
72961;BME280;61141;46.204;19.774;2022-08-03T08:37:34;100589.00;;;29.69;34.53
72961;BME280;61141;46.204;19.774;2022-08-03T08:40:39;100595.47;;;29.90;34.46
72961;BME280;61141;46.204;19.774;2022-08-03T08:43:42;100590.72;;;29.61;35.07
72961;BME280;61141;46.204;19.774;2022-08-03T08:46:46;100591.56;;;29.67;34.47
72961;BME280;61141;46.204;19.774;2022-08-03T08:49:52;100594.94;;;29.92;34.40
72961;BME280;61141;46.204;19.774;2022-08-03T08:53:12;100576.34;;;29.80;34.58
72961;BME280;61141;46.204;19.774;2022-08-03T08:56:22;100586.50;;;30.17;34.10
72961;BME280;61141;46.204;19.774;2022-08-03T08:59:31;100588.66;;;30.28;33.85
72961;BME280;61141;46.204;19.774;2022-08-03T09:02:50;100582.72;;;30.26;33.91
72961;BME280;61141;46.204;19.774;2022-08-03T09:05:53;100571.69;;;30.54;32.98
72961;BME280;61141;46.204;19.774;2022-08-03T09:08:57;100569.53;;;30.74;32.83
72961;BME280;61141;46.204;19.774;2022-08-03T09:12:01;100571.63;;;31.16;32.35
72961;BME280;61141;46.204;19.774;2022-08-03T09:15:29;100575.78;;;31.21;32.15
72961;BME280;61141;46.204;19.774;2022-08-03T09:18:35;100567.19;;;30.99;32.57
72961;BME280;61141;46.204;19.774;2022-08-03T09:21:39;100574.06;;;30.92;32.13
72961;BME280;61141;46.204;19.774;2022-08-03T09:24:56;100579.06;;;30.77;32.39
72961;BME280;61141;46.204;19.774;2022-08-03T09:28:19;100577.28;;;31.11;31.99
72961;BME280;61141;46.204;19.774;2022-08-03T09:31:45;100569.81;;;30.76;32.16
72961;BME280;61141;46.204;19.774;2022-08-03T09:34:50;100569.34;;;30.83;32.28
72961;BME280;61141;46.204;19.774;2022-08-03T09:38:13;100566.88;;;30.97;32.08
72961;BME280;61141;46.204;19.774;2022-08-03T09:41:17;100565.47;;;31.71;31.17
72961;BME280;61141;46.204;19.774;2022-08-03T09:44:33;100563.16;;;31.70;31.21
72961;BME280;61141;46.204;19.774;2022-08-03T09:47:37;100559.94;;;32.10;30.42
72961;BME280;61141;46.204;19.774;2022-08-03T09:50:49;100547.81;;;32.26;30.21
72961;BME280;61141;46.204;19.774;2022-08-03T09:54:12;100545.53;;;32.25;30.25
72961;BME280;61141;46.204;19.774;2022-08-03T09:57:23;100554.31;;;32.71;29.63
72961;BME280;61141;46.204;19.774;2022-08-03T10:00:27;100536.75;;;32.78;29.37
72961;BME280;61141;46.204;19.774;2022-08-03T10:03:34;100538.56;;;32.53;29.59
72961;BME280;61141;46.204;19.774;2022-08-03T10:07:08;100539.53;;;33.06;28.89
72961;BME280;61141;46.204;19.774;2022-08-03T10:10:12;100530.75;;;33.04;28.39
72961;BME280;61141;46.204;19.774;2022-08-03T10:13:33;100524.34;;;32.48;29.25
72961;BME280;61141;46.204;19.774;2022-08-03T10:16:38;100529.53;;;32.33;29.45
72961;BME280;61141;46.204;19.774;2022-08-03T10:19:41;100526.16;;;32.07;29.88
72961;BME280;61141;46.204;19.774;2022-08-03T10:22:46;100517.56;;;31.73;30.25
72961;BME280;61141;46.204;19.774;2022-08-03T10:25:53;100519.81;;;31.47;30.79
72961;BME280;61141;46.204;19.774;2022-08-03T10:28:59;100514.34;;;31.38;30.62
72961;BME280;61141;46.204;19.774;2022-08-03T10:32:06;100507.22;;;30.63;32.22
72961;BME280;61141;46.204;19.774;2022-08-03T10:35:14;100518.16;;;30.81;32.12
72961;BME280;61141;46.204;19.774;2022-08-03T10:38:28;100512.94;;;30.74;32.17
72961;BME280;61141;46.204;19.774;2022-08-03T10:41:38;100511.69;;;30.44;32.87
72961;BME280;61141;46.204;19.774;2022-08-03T10:44:41;100503.94;;;30.39;32.92
72961;BME280;61141;46.204;19.774;2022-08-03T10:47:46;100502.78;;;30.51;32.77
72961;BME280;61141;46.204;19.774;2022-08-03T10:50:51;100507.03;;;30.41;33.03
72961;BME280;61141;46.204;19.774;2022-08-03T10:53:54;100495.88;;;30.26;32.98
72961;BME280;61141;46.204;19.774;2022-08-03T10:56:57;100504.91;;;30.36;32.91
72961;BME280;61141;46.204;19.774;2022-08-03T11:00:25;100497.66;;;30.24;32.83
72961;BME280;61141;46.204;19.774;2022-08-03T11:03:31;100493.69;;;30.42;32.73
72961;BME280;61141;46.204;19.774;2022-08-03T11:06:35;100486.00;;;31.38;31.16
72961;BME280;61141;46.204;19.774;2022-08-03T11:09:46;100488.19;;;31.65;30.49
72961;BME280;61141;46.204;19.774;2022-08-03T11:12:50;100477.97;;;32.12;29.99
72961;BME280;61141;46.204;19.774;2022-08-03T11:16:18;100478.22;;;32.64;29.23
72961;BME280;61141;46.204;19.774;2022-08-03T11:19:42;100475.03;;;32.90;28.84
72961;BME280;61141;46.204;19.774;2022-08-03T11:22:59;100470.47;;;32.65;28.65
72961;BME280;61141;46.204;19.774;2022-08-03T11:26:15;100474.63;;;33.38;27.54
72961;BME280;61141;46.204;19.774;2022-08-03T11:29:28;100462.09;;;33.11;28.09
72961;BME280;61141;46.204;19.774;2022-08-03T11:36:00;100462.06;;;34.04;26.28
72961;BME280;61141;46.204;19.774;2022-08-03T11:39:14;100456.53;;;33.82;26.76
72961;BME280;61141;46.204;19.774;2022-08-03T11:45:25;100451.06;;;33.89;27.02
72961;BME280;61141;46.204;19.774;2022-08-03T11:48:36;100446.44;;;32.77;28.18
72961;BME280;61141;46.204;19.774;2022-08-03T11:51:40;100439.53;;;32.39;28.20
72961;BME280;61141;46.204;19.774;2022-08-03T11:54:43;100438.25;;;32.29;28.71
72961;BME280;61141;46.204;19.774;2022-08-03T11:57:47;100432.75;;;32.86;27.48
72961;BME280;61141;46.204;19.774;2022-08-03T12:01:10;100438.59;;;33.05;27.26
72961;BME280;61141;46.204;19.774;2022-08-03T12:04:14;100423.84;;;33.64;26.52
72961;BME280;61141;46.204;19.774;2022-08-03T12:07:18;100424.66;;;33.59;26.54
72961;BME280;61141;46.204;19.774;2022-08-03T12:10:48;100421.19;;;33.77;25.86
72961;BME280;61141;46.204;19.774;2022-08-03T12:13:51;100415.47;;;33.36;26.44
72961;BME280;61141;46.204;19.774;2022-08-03T12:17:14;100413.47;;;33.26;26.94
72961;BME280;61141;46.204;19.774;2022-08-03T12:20:23;100412.34;;;32.88;27.62
72961;BME280;61141;46.204;19.774;2022-08-03T12:23:37;100411.94;;;32.45;27.73
72961;BME280;61141;46.204;19.774;2022-08-03T12:26:48;100405.72;;;32.63;27.56
72961;BME280;61141;46.204;19.774;2022-08-03T12:30:03;100412.19;;;32.58;27.38
72961;BME280;61141;46.204;19.774;2022-08-03T12:33:24;100413.22;;;32.44;27.46
72961;BME280;61141;46.204;19.774;2022-08-03T12:36:30;100408.81;;;32.65;27.41
72961;BME280;61141;46.204;19.774;2022-08-03T12:39:33;100412.25;;;32.08;27.89
72961;BME280;61141;46.204;19.774;2022-08-03T12:42:38;100403.97;;;31.88;28.73
72961;BME280;61141;46.204;19.774;2022-08-03T12:45:41;100394.69;;;31.93;28.64
72961;BME280;61141;46.204;19.774;2022-08-03T12:49:02;100394.69;;;31.93;28.64
72961;BME280;61141;46.204;19.774;2022-08-03T12:52:05;100391.22;;;32.83;27.51
72961;BME280;61141;46.204;19.774;2022-08-03T12:55:18;100389.69;;;32.77;27.08
72961;BME280;61141;46.204;19.774;2022-08-03T12:58:33;100388.66;;;32.74;27.32
72961;BME280;61141;46.204;19.774;2022-08-03T13:01:37;100381.75;;;32.59;27.32
72961;BME280;61141;46.204;19.774;2022-08-03T13:04:56;100377.09;;;32.61;27.20
72961;BME280;61141;46.204;19.774;2022-08-03T13:08:01;100370.78;;;32.90;26.80
72961;BME280;61141;46.204;19.774;2022-08-03T13:11:23;100372.87;;;32.79;26.72
72961;BME280;61141;46.204;19.774;2022-08-03T13:14:49;100380.19;;;32.46;27.34
72961;BME280;61141;46.204;19.774;2022-08-03T13:17:54;100376.34;;;32.44;27.56
72961;BME280;61141;46.204;19.774;2022-08-03T13:20:58;100374.28;;;32.50;27.53
72961;BME280;61141;46.204;19.774;2022-08-03T13:24:01;100354.19;;;32.31;27.46
72961;BME280;61141;46.204;19.774;2022-08-03T13:27:05;100362.91;;;32.50;27.16
72961;BME280;61141;46.204;19.774;2022-08-03T13:30:34;100364.44;;;32.62;26.66
72961;BME280;61141;46.204;19.774;2022-08-03T13:33:37;100360.66;;;31.93;27.52
72961;BME280;61141;46.204;19.774;2022-08-03T13:36:41;100359.88;;;32.15;27.50
72961;BME280;61141;46.204;19.774;2022-08-03T13:40:06;100349.63;;;32.12;27.69
72961;BME280;61141;46.204;19.774;2022-08-03T13:43:13;100348.03;;;32.27;27.41
72961;BME280;61141;46.204;19.774;2022-08-03T13:46:16;100347.50;;;32.23;27.17
72961;BME280;61141;46.204;19.774;2022-08-03T13:49:19;100349.00;;;32.41;26.74
72961;BME280;61141;46.204;19.774;2022-08-03T13:52:22;100342.31;;;33.07;26.11
72961;BME280;61141;46.204;19.774;2022-08-03T13:55:25;100348.63;;;33.30;25.33
72961;BME280;61141;46.204;19.774;2022-08-03T13:58:28;100345.25;;;32.85;25.32
72961;BME280;61141;46.204;19.774;2022-08-03T14:01:31;100337.62;;;33.15;25.09
72961;BME280;61141;46.204;19.774;2022-08-03T14:04:54;100334.72;;;33.61;24.81
72961;BME280;61141;46.204;19.774;2022-08-03T14:07:57;100326.00;;;33.19;25.13
72961;BME280;61141;46.204;19.774;2022-08-03T14:11:06;100332.56;;;32.97;25.64
72961;BME280;61141;46.204;19.774;2022-08-03T14:14:10;100324.03;;;32.97;26.04
72961;BME280;61141;46.204;19.774;2022-08-03T14:17:13;100329.44;;;33.77;24.99
72961;BME280;61141;46.204;19.774;2022-08-03T14:20:18;100327.09;;;33.75;24.75
72961;BME280;61141;46.204;19.774;2022-08-03T14:23:41;100323.22;;;34.08;24.45
72961;BME280;61141;46.204;19.774;2022-08-03T14:26:46;100325.44;;;34.39;24.26
72961;BME280;61141;46.204;19.774;2022-08-03T14:29:49;100309.59;;;33.95;24.28
72961;BME280;61141;46.204;19.774;2022-08-03T14:32:52;100311.09;;;34.02;24.14
72961;BME280;61141;46.204;19.774;2022-08-03T14:36:00;100313.09;;;34.12;24.22
72961;BME280;61141;46.204;19.774;2022-08-03T14:39:04;100310.41;;;33.31;25.01
72961;BME280;61141;46.204;19.774;2022-08-03T14:42:07;100308.63;;;32.81;25.30
72961;BME280;61141;46.204;19.774;2022-08-03T14:45:10;100308.78;;;33.00;25.37
72961;BME280;61141;46.204;19.774;2022-08-03T14:48:23;100307.22;;;33.40;24.77
72961;BME280;61141;46.204;19.774;2022-08-03T14:51:46;100302.81;;;33.09;24.90
72961;BME280;61141;46.204;19.774;2022-08-03T14:54:55;100298.28;;;33.30;24.71
72961;BME280;61141;46.204;19.774;2022-08-03T14:57:58;100293.69;;;33.57;24.18
72961;BME280;61141;46.204;19.774;2022-08-03T15:01:04;100297.94;;;32.98;24.91
72961;BME280;61141;46.204;19.774;2022-08-03T15:04:28;100293.75;;;32.64;25.12
72961;BME280;61141;46.204;19.774;2022-08-03T15:07:32;100301.00;;;32.60;25.27
72961;BME280;61141;46.204;19.774;2022-08-03T15:10:36;100295.63;;;32.45;25.59
72961;BME280;61141;46.204;19.774;2022-08-03T15:13:50;100291.69;;;32.65;25.33
72961;BME280;61141;46.204;19.774;2022-08-03T15:16:53;100296.66;;;32.42;25.85
72961;BME280;61141;46.204;19.774;2022-08-03T15:19:57;100306.19;;;32.50;25.77
72961;BME280;61141;46.204;19.774;2022-08-03T15:23:18;100294.84;;;32.44;26.14
72961;BME280;61141;46.204;19.774;2022-08-03T15:26:21;100300.56;;;32.33;26.35
72961;BME280;61141;46.204;19.774;2022-08-03T15:29:36;100295.44;;;32.21;25.98
72961;BME280;61141;46.204;19.774;2022-08-03T15:33:00;100289.75;;;32.21;25.88
72961;BME280;61141;46.204;19.774;2022-08-03T15:36:03;100301.41;;;32.12;26.46
72961;BME280;61141;46.204;19.774;2022-08-03T15:39:06;100292.13;;;32.00;26.41
72961;BME280;61141;46.204;19.774;2022-08-03T15:42:09;100287.50;;;31.97;26.44
72961;BME280;61141;46.204;19.774;2022-08-03T15:45:12;100287.22;;;32.12;26.54
72961;BME280;61141;46.204;19.774;2022-08-03T15:48:19;100279.00;;;31.86;27.79
72961;BME280;61141;46.204;19.774;2022-08-03T15:51:28;100288.03;;;31.57;29.67
72961;BME280;61141;46.204;19.774;2022-08-03T15:54:31;100284.47;;;31.51;29.46
72961;BME280;61141;46.204;19.774;2022-08-03T15:57:34;100279.28;;;31.38;30.58
72961;BME280;61141;46.204;19.774;2022-08-03T16:00:59;100277.19;;;31.16;30.48
72961;BME280;61141;46.204;19.774;2022-08-03T16:04:04;100284.66;;;31.14;30.76
72961;BME280;61141;46.204;19.774;2022-08-03T16:07:07;100283.88;;;31.08;31.16
72961;BME280;61141;46.204;19.774;2022-08-03T16:10:16;100282.56;;;30.92;30.79
72961;BME280;61141;46.204;19.774;2022-08-03T16:13:19;100273.78;;;30.84;29.95
72961;BME280;61141;46.204;19.774;2022-08-03T16:16:22;100278.50;;;31.32;29.28
72961;BME280;61141;46.204;19.774;2022-08-03T16:19:25;100284.72;;;31.53;28.81
72961;BME280;61141;46.204;19.774;2022-08-03T16:22:28;100283.94;;;31.47;28.73
72961;BME280;61141;46.204;19.774;2022-08-03T16:25:31;100286.97;;;31.32;29.11
72961;BME280;61141;46.204;19.774;2022-08-03T16:28:34;100283.66;;;31.28;28.85
72961;BME280;61141;46.204;19.774;2022-08-03T16:31:40;100284.44;;;31.28;28.83